Latest Weather Observations for Perth

IDW60901

Issued at 6:11 pm WST Friday 4 September 2015 (issued every 10 minutes, with the page automatically refreshed every 10 minutes)

About weather observations | Map of Perth area stations | Latest observations for Perth area | Other Formats
Station Details ID: 009225 Name: PERTH METRO Lat: -31.92 Lon: 115.87 Height: 24.9 m
Data from the previous 72 hours. | See also: Recent months at Perth
Date/Time
WST
Tmp

°C
App
Tmp
°C
Dew
Point
°C
Rel
Hum
%
Delta-T

°C
Wind Press
QNH
hPa
Press
MSL
hPa
Rain
since
9 am
mm
Dir
 
Spd
km/h
Gust
km/h
Spd
kts
Gust
kts
04/06:00pm 17.3 16.3 12.4 73 2.7 NW 9 17 5 9 1016.4 1016.3 0.0
04/05:30pm 17.4 15.4 11.4 68 3.3 NW 13 28 7 15 1016.3 1016.2 0.0
04/05:00pm 18.1 16.0 11.2 64 3.7 NW 13 22 7 12 1015.7 1015.6 0.0
04/04:30pm 17.8 15.8 11.4 66 3.5 NNW 13 26 7 14 1014.8 1014.7 0.0
04/04:00pm 18.0 16.8 11.6 66 3.5 NNW 9 17 5 9 1015.2 1015.1 0.0
04/03:30pm 18.1 16.1 11.4 65 3.7 NW 13 20 7 11 1015.9 1015.8 0.0
04/03:00pm 18.2 16.1 11.0 63 3.9 NNW 13 24 7 13 1015.6 1015.5 0.0
04/02:30pm 18.9 16.7 10.7 59 4.4 NW 13 28 7 15 1016.3 1016.2 0.0
04/02:00pm 18.4 16.1 10.3 59 4.3 NW 13 30 7 16 1016.3 1016.2 0.0
04/01:30pm 18.8 16.3 9.8 56 4.8 NW 13 22 7 12 1016.6 1016.5 0.0
04/01:00pm 19.8 17.0 10.0 53 5.2 WNW 15 24 8 13 1016.4 1016.3 0.0
04/12:30pm 19.1 16.0 9.0 52 5.3 NW 15 28 8 15 1016.8 1016.7 0.0
04/12:00pm 19.2 16.1 8.8 51 5.4 NW 15 26 8 14 1017.1 1017.0 0.0
04/11:30am 19.0 16.2 8.4 50 5.5 NW 13 28 7 15 1017.1 1017.0 0.0
04/11:00am 18.9 16.0 8.3 50 5.5 NW 13 22 7 12 1017.2 1017.1 0.0
04/10:30am 19.3 16.4 8.3 49 5.7 WNW 13 22 7 12 1017.6 1017.5 0.0
04/10:00am 18.0 17.4 10.4 61 4.1 NE 4 7 2 4 1017.8 1017.7 0.0
04/09:30am 15.4 13.9 8.6 64 3.5 NE 6 7 3 4 1018.0 1017.9 0.0
04/09:00am 13.7 12.0 8.3 70 2.7 NE 7 11 4 6 1017.7 1017.6 0.0
04/08:30am 11.7 9.6 6.6 71 2.4 NE 7 9 4 5 1018.0 1017.9 0.0
04/08:00am 10.2 7.5 5.6 73 2.1 NE 9 13 5 7 1017.9 1017.8 0.0
04/07:30am 8.1 6.1 6.2 88 0.9 NE 6 9 3 5 1017.7 1017.6 0.0
04/07:00am 5.2 4.0 4.5 95 0.3 CALM 0 6 0 3 1017.2 1017.1 0.0
04/06:30am 4.9 2.4 4.0 94 0.4 NE 6 9 3 5 1016.7 1016.6 0.0
04/06:00am 4.9 3.2 4.0 94 0.4 NE 2 7 1 4 1016.5 1016.4 0.0
04/05:30am 5.3 4.1 4.6 95 0.3 CALM 0 6 0 3 1016.3 1016.2 0.0
04/05:00am 5.3 3.3 4.6 95 0.3 NE 4 9 2 5 1016.0 1015.9 0.0
04/04:30am 5.2 4.0 4.5 95 0.3 CALM 0 0 0 0 1016.1 1016.0 0.0
04/04:00am 5.3 3.7 4.6 95 0.3 NE 2 7 1 4 1016.1 1016.0 0.0
04/03:30am 5.5 4.3 4.8 95 0.3 CALM 0 0 0 0 1016.3 1016.2 0.0
04/03:00am 5.8 4.7 5.1 95 0.3 CALM 0 0 0 0 1016.2 1016.1 0.0
04/02:30am 6.0 4.9 5.1 94 0.4 CALM 0 6 0 3 1016.5 1016.4 0.0
04/02:00am 6.4 5.4 5.5 94 0.4 CALM 0 0 0 0 1016.7 1016.6 0.0
04/01:30am 6.4 5.4 5.4 93 0.4 CALM 0 0 0 0 1017.0 1016.9 0.0
04/01:00am 7.0 6.1 5.9 93 0.5 CALM 0 0 0 0 1017.3 1017.2 0.0
04/12:30am 7.2 6.3 6.0 92 0.5 CALM 0 0 0 0 1017.7 1017.6 0.0
04/12:00am 7.6 6.7 6.2 91 0.6 CALM 0 0 0 0 1018.0 1017.9 0.0
 
Date/Time
WST
Tmp

°C
App
Tmp
°C
Dew
Point
°C
Rel
Hum
%
Delta-T

°C
Wind Press
QNH
hPa
Press
MSL
hPa
Rain
since
9 am
mm
Dir
 
Spd
km/h
Gust
km/h
Spd
kts
Gust
kts
03/11:30pm 7.9 7.1 6.4 90 0.7 CALM 0 0 0 0 1018.4 1018.3 0.0
03/11:00pm 8.6 7.9 6.9 89 0.8 CALM 0 0 0 0 1018.9 1018.8 0.0
03/10:30pm 8.9 8.3 7.2 89 0.8 CALM 0 0 0 0 1019.1 1019.0 0.0
03/10:00pm 9.3 8.6 7.1 86 1.0 CALM 0 0 0 0 1019.4 1019.3 0.0
03/09:30pm 9.9 9.3 7.3 84 1.2 CALM 0 0 0 0 1019.6 1019.5 0.0
03/09:00pm 10.4 9.8 7.6 83 1.3 CALM 0 0 0 0 1019.7 1019.6 0.0
03/08:30pm 11.1 10.6 7.8 80 1.6 CALM 0 0 0 0 1019.6 1019.5 0.0
03/08:00pm 11.8 11.3 7.9 77 1.9 CALM 0 0 0 0 1019.5 1019.4 0.0
03/07:30pm 12.7 12.2 7.8 72 2.4 CALM 0 0 0 0 1019.4 1019.3 0.0
03/07:00pm 13.9 13.4 7.9 67 3.0 CALM 0 0 0 0 1019.3 1019.2 0.0
03/06:30pm 15.5 14.5 7.3 58 4.1 NE 2 7 1 4 1019.0 1018.9 0.0
03/06:00pm 17.0 15.1 6.8 51 5.0 NE 6 9 3 5 1019.0 1018.9 0.0
03/05:30pm 18.9 16.5 4.3 38 7.0 NE 6 9 3 5 1019.0 1018.9 0.0
03/05:00pm 19.4 16.9 4.0 36 7.3 ENE 6 13 3 7 1018.8 1018.7 0.0
03/04:30pm 20.0 17.1 2.4 31 8.2 ENE 7 15 4 8 1019.0 1018.9 0.0
03/04:00pm 20.2 16.8 1.6 29 8.5 NNE 9 15 5 8 1019.4 1019.3 0.0
03/03:30pm 19.8 16.4 1.7 30 8.3 NE 9 17 5 9 1019.6 1019.5 0.0
03/03:00pm 19.9 16.9 2.3 31 8.1 NNW 7 11 4 6 1019.8 1019.8 0.0
03/02:30pm 20.0 17.1 2.4 31 8.2 NE 7 20 4 11 1020.1 1020.1 0.0
03/02:00pm 20.0 17.6 1.9 30 8.3 NNE 4 9 2 5 1020.3 1020.3 0.0
03/01:30pm 19.6 16.2 2.0 31 8.1 N 9 11 5 6 1020.7 1020.7 0.0
03/01:00pm 18.9 16.2 3.5 36 7.2 NE 7 17 4 9 1021.1 1021.1 0.0
03/12:30pm 18.7 14.5 3.7 37 7.1 NE 15 20 8 11 1021.7 1021.7 0.0
03/12:00pm 17.8 14.2 5.1 43 6.1 NE 13 20 7 11 1022.2 1022.2 0.0
03/11:30am 17.8 14.4 6.0 46 5.8 NE 13 22 7 12 1022.3 1022.3 0.0
03/11:00am 16.7 13.2 5.3 47 5.4 NE 13 22 7 12 1022.8 1022.8 0.0
03/10:30am 16.0 12.1 5.3 49 5.1 NE 15 22 8 12 1023.2 1023.2 0.0
03/10:00am 15.0 10.7 5.2 52 4.6 NE 17 30 9 16 1023.2 1023.2 0.0
03/09:30am 14.6 11.3 6.4 58 4.0 ENE 13 24 7 13 1023.2 1023.2 0.0
03/09:00am 13.1 9.7 6.0 62 3.3 ENE 13 22 7 12 1023.5 1023.5 0.0
03/08:30am 11.9 8.5 5.8 66 2.8 ENE 13 24 7 13 1023.8 1023.8 0.0
03/08:00am 11.0 8.5 6.4 73 2.1 E 9 17 5 9 1024.0 1024.0 0.0
03/07:30am 9.4 6.8 6.3 81 1.4 ESE 9 15 5 8 1024.1 1024.1 0.0
03/07:00am 8.6 6.0 5.9 83 1.2 E 9 17 5 9 1024.0 1024.0 0.0
03/06:30am 8.5 5.9 6.0 84 1.1 E 9 19 5 10 1024.0 1024.0 0.0
03/06:00am 8.7 5.7 6.2 84 1.1 E 11 24 6 13 1023.8 1023.8 0.0
03/05:30am 8.7 6.1 6.3 85 1.1 ENE 9 15 5 8 1023.6 1023.6 0.0
03/05:00am 8.6 6.4 6.2 85 1.1 ENE 7 13 4 7 1023.3 1023.3 0.0
03/04:30am 8.8 6.8 6.4 85 1.1 ENE 6 13 3 7 1023.3 1023.3 0.0
03/04:00am 9.3 7.2 6.7 84 1.2 E 7 13 4 7 1023.5 1023.5 0.0
03/03:30am 9.1 7.0 6.7 85 1.1 ENE 7 11 4 6 1023.8 1023.8 0.0
03/03:00am 9.1 7.2 6.9 86 1.0 E 6 11 3 6 1023.9 1023.9 0.0
03/02:30am 8.9 7.7 6.5 85 1.1 E 2 9 1 5 1024.1 1024.1 0.0
03/02:00am 9.6 7.5 6.5 81 1.4 E 7 11 4 6 1024.2 1024.2 0.0
03/01:30am 10.0 7.8 6.3 78 1.7 E 7 17 4 9 1024.6 1024.6 0.0
03/01:00am 9.6 7.5 6.0 78 1.6 ESE 6 9 3 5 1024.9 1024.9 0.0
03/12:30am 10.3 8.3 6.1 75 1.9 ESE 6 11 3 6 1025.1 1025.1 0.0
03/12:00am 11.1 8.5 6.0 71 2.4 ESE 9 15 5 8 1025.0 1025.0 0.0
 
Date/Time
WST
Tmp

°C
App
Tmp
°C
Dew
Point
°C
Rel
Hum
%
Delta-T

°C
Wind Press
QNH
hPa
Press
MSL
hPa
Rain
since
9 am
mm
Dir
 
Spd
km/h
Gust
km/h
Spd
kts
Gust
kts
02/11:30pm 11.5 9.2 5.8 68 2.7 SE 7 11 4 6 1025.4 1025.4 0.0
02/11:00pm 12.4 10.1 5.8 64 3.1 SE 7 11 4 6 1025.7 1025.7 0.0
02/10:30pm 12.7 10.0 5.8 63 3.2 ESE 9 15 5 8 1025.9 1025.9 0.0
02/10:00pm 12.8 10.5 5.5 61 3.4 ESE 7 11 4 6 1025.9 1025.9 0.0
02/09:30pm 13.0 10.3 5.7 61 3.4 ESE 9 17 5 9 1025.8 1025.8 0.0
02/09:00pm 12.9 10.8 5.6 61 3.4 E 6 9 3 5 1025.6 1025.6 0.0
02/08:30pm 12.9 11.6 5.8 62 3.3 E 2 7 1 4 1025.6 1025.6 0.0
02/08:00pm 13.2 10.9 5.6 60 3.5 ESE 7 15 4 8 1025.3 1025.3 0.0
02/07:30pm 13.4 11.2 5.3 58 3.8 ESE 6 11 3 6 1025.1 1025.1 0.0
02/07:00pm 13.7 10.9 5.1 56 4.0 E 9 15 5 8 1025.2 1025.2 0.0
02/06:30pm 13.8 11.3 4.9 55 4.1 ESE 7 13 4 7 1025.1 1025.1 0.0
02/06:00pm 14.0 11.5 4.6 53 4.3 ENE 7 13 4 7 1025.0 1025.0 0.0
02/05:30pm 14.2 11.5 3.9 50 4.7 E 7 13 4 7 1025.0 1025.0 0.0
02/05:00pm 14.5 11.5 4.2 50 4.7 E 9 17 5 9 1025.0 1025.0 0.0
02/04:30pm 14.6 11.5 3.7 48 5.0 E 9 17 5 9 1024.8 1024.8 0.0
02/04:00pm 14.9 11.9 4.0 48 5.0 ESE 9 15 5 8 1024.8 1024.8 0.0
02/03:30pm 15.3 12.4 4.7 49 5.0 ESE 9 15 5 8 1024.7 1024.7 0.0
02/03:00pm 15.2 12.2 4.3 48 5.0 E 9 17 5 9 1024.8 1024.8 0.0
02/02:30pm 15.5 12.5 3.9 46 5.4 SE 9 17 5 9 1024.7 1024.7 0.0
02/02:00pm 16.1 12.5 2.9 41 6.0 E 11 20 6 11 1024.6 1024.6 0.0
02/01:30pm 16.5 12.8 4.2 44 5.8 E 13 24 7 13 1024.9 1024.9 0.0
02/01:00pm 15.5 12.0 3.6 45 5.4 ESE 11 20 6 11 1025.3 1025.3 0.0
02/12:30pm 15.3 11.7 3.1 44 5.5 ENE 11 20 6 11 1025.7 1025.7 0.0
02/12:00pm 15.1 11.3 3.9 47 5.1 E 13 26 7 14 1026.1 1026.1 0.0
02/11:30am 13.8 9.9 3.6 50 4.6 SE 13 22 7 12 1026.5 1026.5 0.0
02/11:00am 14.5 10.3 3.6 48 4.9 E 15 24 8 13 1026.9 1026.9 0.0
02/10:30am 13.8 9.9 3.6 50 4.6 ESE 13 22 7 12 1027.3 1027.3 0.0
02/10:00am 13.0 10.1 4.9 58 3.7 E 9 17 5 9 1027.7 1027.7 0.0
02/09:30am 12.2 9.8 5.1 62 3.3 SSE 7 11 4 6 1028.0 1028.0 0.0
02/09:00am 10.8 7.9 4.5 65 2.8 SE 9 17 5 9 1028.3 1028.3 0.2
02/08:30am 9.6 7.2 4.2 69 2.4 E 6 11 3 6 1028.4 1028.4 0.2
02/08:00am 7.8 6.8 5.6 86 1.0 CALM 0 6 0 3 1028.2 1028.2 0.2
02/07:30am 4.7 3.4 4.1 96 0.3 CALM 0 0 0 0 1028.1 1028.1 0.2
02/07:00am 3.1 1.5 2.5 96 0.2 CALM 0 0 0 0 1027.7 1027.7 0.2
02/06:30am 2.8 1.2 2.2 96 0.2 CALM 0 0 0 0 1027.4 1027.4 0.2
02/06:00am 3.0 1.4 2.3 95 0.3 CALM 0 0 0 0 1027.1 1027.1 0.2
02/05:30am 3.0 1.4 2.3 95 0.3 CALM 0 0 0 0 1027.0 1027.0 0.2
02/05:00am 3.3 1.7 2.4 94 0.4 CALM 0 0 0 0 1026.7 1026.7 0.2
02/04:30am 3.4 1.8 2.4 93 0.4 CALM 0 0 0 0 1026.5 1026.5 0.2
02/04:00am 3.7 2.1 2.5 92 0.5 CALM 0 0 0 0 1026.2 1026.2 0.2
02/03:30am 4.0 2.4 2.7 91 0.5 CALM 0 0 0 0 1026.1 1026.1 0.2
02/03:00am 4.5 2.9 2.5 87 0.8 CALM 0 0 0 0 1026.0 1026.0 0.2
02/02:30am 5.3 3.8 3.0 85 0.9 CALM 0 0 0 0 1025.9 1025.9 0.2
02/02:00am 6.0 4.1 2.8 80 1.3 E 2 7 1 4 1026.1 1026.1 0.2
02/01:30am 6.8 5.4 3.6 80 1.4 CALM 0 0 0 0 1026.2 1026.2 0.2
02/01:00am 8.2 5.5 2.9 69 2.2 E 6 9 3 5 1026.2 1026.2 0.2
02/12:30am 8.7 6.1 3.1 68 2.4 ESE 6 9 3 5 1026.1 1026.1 0.2
02/12:00am 9.0 6.2 3.2 67 2.5 SSE 7 17 4 9 1026.2 1026.2 0.2
 
Date/Time
WST
Tmp

°C
App
Tmp
°C
Dew
Point
°C
Rel
Hum
%
Delta-T

°C
Wind Press
QNH
hPa
Press
MSL
hPa
Rain
since
9 am
mm
Dir
 
Spd
km/h
Gust
km/h
Spd
kts
Gust
kts
01/11:30pm 8.6 6.1 3.8 72 2.1 SE 6 9 3 5 1026.1 1026.1 0.2
01/11:00pm 8.7 6.4 4.7 76 1.8 SE 6 9 3 5 1026.2 1026.2 0.2
01/10:30pm 9.3 6.9 5.3 76 1.8 S 7 17 4 9 1026.2 1026.2 0.2
01/10:00pm 9.2 7.1 5.6 78 1.6 S 6 7 3 4 1026.1 1026.1 0.2
01/09:30pm 9.9 7.9 6.1 77 1.8 S 6 9 3 5 1025.9 1025.9 0.2
01/09:00pm 10.8 8.2 6.2 73 2.1 S 9 13 5 7 1025.6 1025.6 0.2
01/08:30pm 11.0 8.4 6.2 72 2.2 S 9 13 5 7 1025.4 1025.4 0.2
01/08:00pm 11.2 9.0 6.1 71 2.4 S 7 9 4 5 1025.2 1025.2 0.2
01/07:30pm 11.5 8.8 5.6 67 2.7 S 9 11 5 6 1024.5 1024.5 0.2
01/07:00pm 12.0 9.3 5.6 65 3.0 S 9 13 5 7 1024.1 1024.1 0.2
01/06:30pm 12.5 8.9 5.2 61 3.4 S 13 19 7 10 1023.8 1023.8 0.2

Latest Capital City Observations: Canberra | Sydney | Melbourne | Brisbane | Adelaide | Perth | Hobart | Darwin

Other Formats:

Comma delimited format used in spreadsheet applications
http://www.bom.gov.au/fwo/IDW60901/IDW60901.94608.axf

JavaScript Object Notation format (JSON) in row-major order
http://www.bom.gov.au/fwo/IDW60901/IDW60901.94608.json